createdAt,value
2022-08-18T00:00:30.513Z,51.50
2022-08-18T00:01:33.512Z,51.50
2022-08-18T00:02:39.274Z,52.75
2022-08-18T00:03:56.643Z,53.44
2022-08-18T00:05:02.680Z,53.68
2022-08-18T00:06:09.026Z,53.91
2022-08-18T00:07:16.357Z,53.95
2022-08-18T00:08:19.463Z,54.28
2022-08-18T00:09:22.447Z,54.53
2022-08-18T00:10:26.319Z,54.21
2022-08-18T00:11:40.575Z,54.45
2022-08-18T00:12:45.288Z,54.69
2022-08-18T00:13:48.415Z,54.25
2022-08-18T00:14:53.068Z,54.34
2022-08-18T00:15:59.435Z,55.07
2022-08-18T00:17:02.524Z,55.10
2022-08-18T00:18:05.524Z,55.41
2022-08-18T00:19:09.535Z,55.23
2022-08-18T00:20:19.839Z,55.38
2022-08-18T00:21:22.883Z,55.56
2022-08-18T00:22:27.460Z,55.39
2022-08-18T00:23:32.881Z,55.97
2022-08-18T00:24:35.939Z,56.09
2022-08-18T00:25:51.366Z,55.93
2022-08-18T00:26:55.025Z,56.18
2022-08-18T00:27:58.321Z,56.25
2022-08-18T00:29:01.355Z,55.99
2022-08-18T00:30:09.231Z,56.23
2022-08-18T00:31:12.261Z,55.84
2022-08-18T00:32:23.295Z,56.30
2022-08-18T00:33:26.340Z,56.66
2022-08-18T00:34:29.347Z,56.73
2022-08-18T00:35:38.235Z,56.73
2022-08-18T00:36:41.453Z,57.41
2022-08-18T00:37:45.204Z,57.89
2022-08-18T00:38:48.077Z,58.16
2022-08-18T00:39:53.917Z,58.21
2022-08-18T00:40:58.183Z,58.54
2022-08-18T00:42:14.035Z,58.51
2022-08-18T00:43:47.165Z,59.01
2022-08-18T00:44:50.280Z,58.75
2022-08-18T00:45:53.186Z,58.74
2022-08-18T00:46:56.251Z,58.95
2022-08-18T00:47:59.963Z,59.05
2022-08-18T00:49:04.550Z,58.79
2022-08-18T00:50:08.195Z,59.01
2022-08-18T00:51:42.946Z,59.44
2022-08-18T00:52:52.851Z,59.86
2022-08-18T00:54:25.017Z,59.79
2022-08-18T00:55:30.067Z,59.94
2022-08-18T00:56:40.222Z,60.02
2022-08-18T00:57:44.866Z,60.49
2022-08-18T00:58:54.236Z,60.92
2022-08-18T01:00:08.686Z,60.64
2022-08-18T01:01:13.520Z,61.29
2022-08-18T01:02:48.183Z,61.57
2022-08-18T01:03:56.921Z,61.58
2022-08-18T01:05:09.442Z,61.14
2022-08-18T01:06:21.989Z,61.55
2022-08-18T01:07:33.522Z,61.56
2022-08-18T01:08:36.482Z,61.67
2022-08-18T01:09:39.513Z,61.86
2022-08-18T01:10:43.838Z,61.80
2022-08-18T01:11:47.273Z,62.00
2022-08-18T01:12:56.258Z,62.09
2022-08-18T01:13:59.785Z,62.11
2022-08-18T01:15:02.780Z,62.11
2022-08-18T01:16:25.978Z,62.18
2022-08-18T01:17:48.034Z,62.31
2022-08-18T01:19:10.028Z,62.40
2022-08-18T01:20:38.787Z,62.70
2022-08-18T01:21:53.984Z,63.10
2022-08-18T01:23:07.427Z,63.11
2022-08-18T01:24:13.465Z,63.28
2022-08-18T01:25:38.781Z,63.31
2022-08-18T01:26:50.164Z,63.54
2022-08-18T01:27:54.786Z,63.44
2022-08-18T01:29:14.136Z,62.59
2022-08-18T01:30:25.807Z,62.36
2022-08-18T01:31:54.838Z,63.24
2022-08-18T01:32:59.605Z,63.42
2022-08-18T01:34:03.721Z,63.70
2022-08-18T01:35:09.936Z,63.55
2022-08-18T01:36:19.361Z,63.99
2022-08-18T01:37:24.641Z,63.69
2022-08-18T01:38:27.845Z,63.35
2022-08-18T01:41:22.455Z,63.58
2022-08-18T01:41:24.576Z,63.40
2022-08-18T01:42:18.986Z,64.20
2022-08-18T01:43:22.062Z,64.25
2022-08-18T01:44:25.324Z,64.75
2022-08-18T01:45:28.380Z,64.85
2022-08-18T01:46:34.058Z,64.78
2022-08-18T01:47:57.995Z,65.05
2022-08-18T01:49:01.620Z,64.67
2022-08-18T01:50:05.891Z,64.94
2022-08-18T01:51:10.147Z,65.20
2022-08-18T01:52:22.605Z,64.86
2022-08-18T01:53:26.903Z,66.05
2022-08-18T01:54:30.642Z,66.13
2022-08-18T01:55:37.707Z,65.92
2022-08-18T01:56:42.780Z,66.00
2022-08-18T01:57:45.916Z,66.28
2022-08-18T01:58:49.047Z,66.17
2022-08-18T01:59:51.961Z,66.05
2022-08-18T02:01:02.263Z,65.91
2022-08-18T02:02:05.801Z,66.14
2022-08-18T02:03:13.421Z,65.78
2022-08-18T02:04:36.490Z,66.11
2022-08-18T02:05:48.134Z,66.65
2022-08-18T02:06:51.373Z,66.16
2022-08-18T02:07:54.946Z,66.24
2022-08-18T02:09:16.525Z,65.92
2022-08-18T02:10:27.924Z,65.54
2022-08-18T02:11:30.860Z,65.75
2022-08-18T02:12:34.419Z,66.43
2022-08-18T02:13:37.625Z,66.63
2022-08-18T02:14:40.779Z,66.68
2022-08-18T02:15:43.684Z,66.73
2022-08-18T02:16:50.353Z,67.20
2022-08-18T02:17:53.457Z,66.89
2022-08-18T02:18:56.404Z,66.81
2022-08-18T02:20:03.339Z,67.37
2022-08-18T02:21:12.035Z,67.51
2022-08-18T02:22:20.640Z,67.64
2022-08-18T02:23:30.310Z,67.31
2022-08-18T02:24:33.283Z,67.08
2022-08-18T02:25:39.355Z,66.26
2022-08-18T02:26:43.545Z,66.67
2022-08-18T02:28:54.803Z,67.90
2022-08-18T02:30:03.521Z,68.05
2022-08-18T02:31:26.858Z,68.14
2022-08-18T02:32:29.779Z,68.71
2022-08-18T02:33:32.641Z,68.82
2022-08-18T02:34:36.163Z,68.84
2022-08-18T02:35:39.818Z,68.16
2022-08-18T02:36:43.186Z,68.87
2022-08-18T02:37:49.016Z,69.05
2022-08-18T02:38:59.351Z,69.31
2022-08-18T02:40:07.598Z,69.02
2022-08-18T02:41:13.347Z,69.04
2022-08-18T02:42:16.649Z,69.25
2022-08-18T02:43:19.645Z,68.97
2022-08-18T02:44:22.842Z,68.99
2022-08-18T02:45:26.461Z,69.11
2022-08-18T02:46:31.317Z,68.89
2022-08-18T02:47:34.731Z,68.89
2022-08-18T02:48:39.671Z,68.83
2022-08-18T02:49:42.618Z,68.66
2022-08-18T02:50:48.354Z,68.61
2022-08-18T02:51:52.768Z,68.34
2022-08-18T02:52:55.752Z,68.37
2022-08-18T02:53:59.764Z,68.37
2022-08-18T02:55:03.905Z,68.72
2022-08-18T02:56:40.551Z,68.79
2022-08-18T02:57:50.477Z,68.88
2022-08-18T02:59:05.569Z,69.06
2022-08-18T03:00:16.222Z,69.04
2022-08-18T03:01:26.444Z,69.30
2022-08-18T03:02:32.623Z,69.55
2022-08-18T03:03:36.504Z,69.53
2022-08-18T03:04:39.482Z,69.20
2022-08-18T03:05:42.453Z,69.43
2022-08-18T03:06:46.117Z,69.32
2022-08-18T03:07:50.952Z,69.37
2022-08-18T03:08:55.494Z,69.30
2022-08-18T03:10:00.774Z,69.62
2022-08-18T03:11:25.228Z,69.59
2022-08-18T03:12:28.151Z,69.34
2022-08-18T03:13:31.204Z,69.02
2022-08-18T03:14:36.559Z,69.18
2022-08-18T03:15:39.615Z,68.85
2022-08-18T03:16:53.717Z,69.36
2022-08-18T03:17:58.432Z,69.47
2022-08-18T03:19:02.398Z,69.28
2022-08-18T03:20:06.660Z,69.30
2022-08-18T03:21:18.038Z,69.76
2022-08-18T03:22:28.055Z,69.98
2022-08-18T03:23:32.520Z,69.97
2022-08-18T03:24:36.513Z,69.54
2022-08-18T03:25:48.632Z,69.58
2022-08-18T03:26:53.776Z,69.36
2022-08-18T03:27:57.096Z,69.99
2022-08-18T03:29:01.299Z,70.39
2022-08-18T03:30:04.920Z,70.04
2022-08-18T03:31:16.115Z,70.55
2022-08-18T03:32:19.206Z,70.53
2022-08-18T03:33:22.203Z,71.10
2022-08-18T03:34:25.138Z,70.30
2022-08-18T03:36:37.323Z,71.47
2022-08-18T03:37:40.778Z,71.82
2022-08-18T03:38:45.780Z,72.03
2022-08-18T03:39:54.476Z,71.69
2022-08-18T03:40:57.537Z,71.89
2022-08-18T03:42:01.858Z,71.77
2022-08-18T03:43:23.805Z,71.73
2022-08-18T03:44:38.791Z,71.27
2022-08-18T03:45:41.882Z,71.20
2022-08-18T03:46:45.791Z,71.09
2022-08-18T03:47:53.836Z,71.07
2022-08-18T03:49:06.343Z,71.09
2022-08-18T03:50:09.594Z,71.09
2022-08-18T03:51:19.495Z,71.25
2022-08-18T03:52:23.739Z,71.14
2022-08-18T03:53:26.639Z,70.62
2022-08-18T03:54:32.619Z,70.74
2022-08-18T03:55:35.902Z,71.23
2022-08-18T03:56:39.845Z,71.18
2022-08-18T03:57:43.963Z,71.15
2022-08-18T03:58:50.111Z,71.53
2022-08-18T03:59:55.182Z,71.50
2022-08-18T04:00:58.084Z,70.82
2022-08-18T04:02:04.680Z,70.72
2022-08-18T04:03:08.294Z,70.83
2022-08-18T04:04:16.560Z,71.33
2022-08-18T04:05:19.434Z,71.25
2022-08-18T04:06:30.161Z,70.82
2022-08-18T04:07:33.667Z,70.94
2022-08-18T04:08:36.705Z,71.05
2022-08-18T04:09:39.792Z,70.90
2022-08-18T04:10:44.915Z,71.89
2022-08-18T04:11:49.030Z,71.12
2022-08-18T04:12:52.689Z,71.27
2022-08-18T04:13:59.236Z,71.77
2022-08-18T04:15:05.826Z,71.71
2022-08-18T04:16:10.382Z,71.55
2022-08-18T04:17:19.396Z,71.13
2022-08-18T04:18:22.457Z,71.34
2022-08-18T04:19:26.897Z,71.64
2022-08-18T04:20:36.359Z,71.67
2022-08-18T04:21:42.433Z,71.85
2022-08-18T04:22:46.760Z,71.58
2022-08-18T04:23:53.545Z,71.46
2022-08-18T04:24:58.114Z,71.44
2022-08-18T04:26:02.160Z,71.50
2022-08-18T04:27:05.377Z,71.13
2022-08-18T04:28:08.412Z,70.77
2022-08-18T04:29:12.586Z,71.26
2022-08-18T04:30:15.692Z,71.14
2022-08-18T04:31:23.872Z,70.88
2022-08-18T04:32:30.168Z,70.94
2022-08-18T04:33:33.300Z,71.08
2022-08-18T04:34:36.374Z,70.70
2022-08-18T04:35:40.304Z,70.70
2022-08-18T04:36:43.969Z,70.61
2022-08-18T04:37:53.521Z,70.35
2022-08-18T04:38:56.932Z,70.15
2022-08-18T04:40:00.628Z,70.25
2022-08-18T04:41:04.120Z,70.07
2022-08-18T04:42:07.074Z,70.09
2022-08-18T04:43:15.638Z,70.29
2022-08-18T04:44:19.889Z,70.20
2022-08-18T04:45:22.798Z,70.08
2022-08-18T04:46:27.137Z,69.77
2022-08-18T04:47:30.070Z,70.03
2022-08-18T04:48:35.702Z,69.92
2022-08-18T04:49:39.115Z,69.86
2022-08-18T04:50:42.906Z,70.04
2022-08-18T04:52:31.039Z,70.15
2022-08-18T04:53:45.604Z,70.04
2022-08-18T04:54:48.623Z,69.63
2022-08-18T04:55:53.393Z,69.85
2022-08-18T04:56:56.317Z,69.37
2022-08-18T04:57:59.834Z,69.52
2022-08-18T04:59:06.802Z,69.39
2022-08-18T05:00:13.984Z,69.45
2022-08-18T05:01:17.966Z,69.28
2022-08-18T05:02:22.540Z,69.46
2022-08-18T05:03:27.976Z,69.09
2022-08-18T05:04:32.297Z,69.05
2022-08-18T05:05:36.088Z,68.76
2022-08-18T05:06:39.285Z,68.29
2022-08-18T05:07:46.787Z,68.00
2022-08-18T05:08:49.675Z,68.21
2022-08-18T05:09:55.340Z,68.33
2022-08-18T05:11:03.825Z,68.22
2022-08-18T05:12:09.479Z,68.20
2022-08-18T05:13:15.432Z,67.87
2022-08-18T05:14:19.151Z,67.50
2022-08-18T05:15:27.810Z,66.80
2022-08-18T05:16:48.205Z,66.64
2022-08-18T05:17:52.139Z,67.52
2022-08-18T05:18:57.546Z,67.11
2022-08-18T05:20:01.901Z,67.00
2022-08-18T05:21:05.907Z,66.64
2022-08-18T05:22:27.841Z,66.64
2022-08-18T05:23:32.274Z,66.91
2022-08-18T05:24:37.460Z,66.81
2022-08-18T05:25:41.318Z,65.95
2022-08-18T05:26:44.862Z,65.43
2022-08-18T05:27:47.997Z,65.85
2022-08-18T05:28:55.702Z,66.27
2022-08-18T05:30:09.210Z,65.98
2022-08-18T05:31:25.940Z,65.67
2022-08-18T05:32:46.993Z,66.02
2022-08-18T05:33:52.223Z,65.70
2022-08-18T05:34:55.274Z,65.39
2022-08-18T05:36:05.223Z,64.98
2022-08-18T05:37:48.433Z,65.12
2022-08-18T05:39:10.104Z,64.79
2022-08-18T05:40:15.487Z,64.41
2022-08-18T05:41:33.909Z,64.82
2022-08-18T05:42:39.233Z,64.36
2022-08-18T05:43:51.093Z,64.25
2022-08-18T05:45:00.379Z,63.08
2022-08-18T05:46:05.692Z,62.69
2022-08-18T05:47:25.550Z,62.83
2022-08-18T05:48:28.562Z,62.94
2022-08-18T05:49:31.950Z,63.29
2022-08-18T05:50:38.229Z,62.02
2022-08-18T05:51:50.985Z,61.49
2022-08-18T05:53:03.371Z,61.44
2022-08-18T05:54:28.053Z,60.88
2022-08-18T05:55:58.326Z,60.88
2022-08-18T05:57:16.345Z,61.33
2022-08-18T05:58:33.300Z,61.55
2022-08-18T05:59:40.571Z,61.55
2022-08-18T06:00:59.877Z,60.89
2022-08-18T06:02:30.430Z,60.91
2022-08-18T06:03:49.861Z,60.88
2022-08-18T06:05:06.831Z,61.27
2022-08-18T06:06:14.589Z,60.14
2022-08-18T06:07:26.589Z,59.78
2022-08-18T06:08:54.584Z,59.90
2022-08-18T06:09:58.003Z,59.38
2022-08-18T06:11:00.906Z,59.23
2022-08-18T06:12:22.857Z,59.65
2022-08-18T06:13:25.860Z,59.65
2022-08-18T06:14:28.810Z,59.55
2022-08-18T06:15:40.913Z,58.50
2022-08-18T06:17:08.623Z,58.93
2022-08-18T06:18:54.712Z,58.71
2022-08-18T06:20:26.960Z,58.57
2022-08-18T06:21:39.267Z,58.58
2022-08-18T06:23:16.501Z,58.63
2022-08-18T06:24:44.228Z,58.67
2022-08-18T06:26:25.632Z,58.38
2022-08-18T06:27:41.243Z,58.43
2022-08-18T06:28:52.009Z,57.95
2022-08-18T06:30:22.476Z,58.36
2022-08-18T06:31:54.035Z,57.01
2022-08-18T06:33:15.382Z,57.11
2022-08-18T06:34:44.100Z,57.17
2022-08-18T06:35:52.139Z,57.71
2022-08-18T06:37:07.417Z,56.84
2022-08-18T06:38:39.088Z,56.58
2022-08-18T06:39:52.151Z,57.00
2022-08-18T06:41:41.720Z,56.32
2022-08-18T06:42:39.928Z,56.99
2022-08-18T06:44:14.284Z,57.20
2022-08-18T06:45:19.526Z,56.88
2022-08-18T06:46:33.822Z,56.91
2022-08-18T06:47:55.222Z,56.73
2022-08-18T06:49:04.097Z,56.39
2022-08-18T06:50:18.742Z,56.06
2022-08-18T06:51:23.580Z,56.15
2022-08-18T06:52:33.924Z,56.54
2022-08-18T06:54:18.146Z,56.29
2022-08-18T06:55:36.354Z,56.48
2022-08-18T06:56:39.310Z,56.40
2022-08-18T06:58:00.606Z,56.61
2022-08-18T06:59:27.452Z,56.77
2022-08-18T07:00:34.370Z,56.47
2022-08-18T07:01:39.469Z,56.62
2022-08-18T07:02:42.342Z,56.55
2022-08-18T07:03:54.941Z,56.85
2022-08-18T07:05:22.522Z,56.47
2022-08-18T07:06:31.197Z,56.05
2022-08-18T07:07:41.012Z,55.91
2022-08-18T07:08:55.424Z,56.37
2022-08-18T07:10:04.413Z,55.91
2022-08-18T07:11:14.161Z,56.29
2022-08-18T07:12:32.161Z,56.39
2022-08-18T07:13:42.467Z,56.07
2022-08-18T07:14:55.091Z,55.96
2022-08-18T07:16:26.316Z,56.10
2022-08-18T07:17:42.149Z,56.23
2022-08-18T07:18:47.245Z,56.36
2022-08-18T07:20:10.827Z,55.71
2022-08-18T07:21:29.652Z,55.56
2022-08-18T07:22:38.917Z,56.05
2022-08-18T07:23:42.484Z,55.84
2022-08-18T07:24:47.894Z,55.94
2022-08-18T07:25:59.900Z,56.01
2022-08-18T07:27:08.245Z,55.64
2022-08-18T07:28:39.943Z,55.42
2022-08-18T07:30:09.480Z,55.27
2022-08-18T07:31:25.270Z,54.47
2022-08-18T07:32:44.784Z,54.83
2022-08-18T07:34:08.476Z,54.20
2022-08-18T07:35:17.814Z,54.63
2022-08-18T07:36:24.603Z,54.27
2022-08-18T07:37:34.451Z,54.13
2022-08-18T07:38:57.336Z,53.58
2022-08-18T07:40:06.153Z,53.25
2022-08-18T07:41:15.825Z,53.88
2022-08-18T07:42:54.446Z,52.69
2022-08-18T07:44:32.728Z,52.91
2022-08-18T07:45:43.533Z,51.89
2022-08-18T07:46:51.389Z,52.14
2022-08-18T07:48:15.802Z,52.10
2022-08-18T07:49:35.215Z,51.60
2022-08-18T07:51:08.900Z,52.77
2022-08-18T07:52:36.158Z,51.39
2022-08-18T07:54:01.954Z,50.87
2022-08-18T07:55:29.333Z,50.91
2022-08-18T07:56:48.656Z,50.64
2022-08-18T07:58:19.363Z,50.25
2022-08-18T07:59:48.700Z,50.42
2022-08-18T08:01:04.744Z,50.42
2022-08-18T08:02:30.794Z,49.23
2022-08-18T08:03:39.291Z,49.91
2022-08-18T08:04:54.066Z,48.78
2022-08-18T08:06:00.218Z,49.44
2022-08-18T08:07:26.536Z,49.52
2022-08-18T08:08:45.106Z,48.08
2022-08-18T08:10:37.805Z,48.60
2022-08-18T08:11:58.144Z,46.78
2022-08-18T08:13:10.293Z,47.25
2022-08-18T08:14:30.743Z,46.27
2022-08-18T08:15:56.146Z,45.80
2022-08-18T08:17:13.377Z,45.12
2022-08-18T08:18:21.824Z,44.54
2022-08-18T08:19:56.728Z,45.68
2022-08-18T08:21:08.897Z,43.88
2022-08-18T08:22:28.288Z,43.96
2022-08-18T08:23:33.837Z,44.16
2022-08-18T08:24:59.809Z,43.68
2022-08-18T08:26:30.647Z,43.85
2022-08-18T08:27:58.040Z,44.12
2022-08-18T08:29:59.051Z,43.88
2022-08-18T08:31:36.143Z,43.11
2022-08-18T08:33:05.077Z,43.58
2022-08-18T08:34:15.113Z,42.50
2022-08-18T08:35:49.198Z,42.89
2022-08-18T08:37:02.153Z,41.65
2022-08-18T08:38:39.871Z,41.71
2022-08-18T08:39:42.089Z,41.36
2022-08-18T08:40:53.381Z,41.85
2022-08-18T08:42:29.292Z,41.87
2022-08-18T08:43:32.662Z,41.52
2022-08-18T08:45:03.904Z,41.05
2022-08-18T08:46:09.930Z,42.17
2022-08-18T08:47:35.555Z,41.16
2022-08-18T08:48:49.851Z,41.69
2022-08-18T08:50:13.740Z,41.52
2022-08-18T08:51:38.487Z,41.38
2022-08-18T08:52:50.681Z,40.93
2022-08-18T08:54:02.299Z,40.91
2022-08-18T08:55:28.662Z,40.26
2022-08-18T08:56:40.267Z,38.60
2022-08-18T08:58:12.301Z,38.33
2022-08-18T08:59:21.410Z,38.90
2022-08-18T09:00:25.109Z,38.02
2022-08-18T09:01:54.108Z,39.63
2022-08-18T09:03:06.956Z,40.86
2022-08-18T09:04:24.141Z,40.77
2022-08-18T09:05:36.609Z,40.69
2022-08-18T09:07:14.691Z,41.05
2022-08-18T09:08:39.555Z,39.46
2022-08-18T09:10:19.810Z,38.50
2022-08-18T09:11:45.275Z,38.27
2022-08-18T09:12:56.330Z,39.84
2022-08-18T09:14:40.956Z,40.42
2022-08-18T09:16:12.277Z,39.53
2022-08-18T09:17:35.134Z,39.53
2022-08-18T09:19:05.370Z,39.84
2022-08-18T09:20:18.884Z,38.97
2022-08-18T09:21:44.737Z,39.18
2022-08-18T09:22:49.692Z,38.68
2022-08-18T09:23:59.099Z,38.77
2022-08-18T09:25:02.763Z,38.73
2022-08-18T09:26:26.825Z,37.70
2022-08-18T09:28:09.517Z,39.19
2022-08-18T09:29:23.660Z,38.42
2022-08-18T09:30:49.077Z,37.98
2022-08-18T09:32:23.922Z,37.66
2022-08-18T09:33:45.897Z,37.76
2022-08-18T09:35:01.338Z,38.41
2022-08-18T09:36:35.093Z,37.73
2022-08-18T09:38:13.210Z,36.39
2022-08-18T09:39:53.151Z,35.25
2022-08-18T09:41:24.524Z,35.97
2022-08-18T09:42:48.525Z,35.36
2022-08-18T09:44:21.155Z,35.11
2022-08-18T09:45:36.515Z,35.94
2022-08-18T09:46:43.734Z,34.49
2022-08-18T09:47:52.783Z,34.60
2022-08-18T09:49:31.175Z,35.61
2022-08-18T09:50:57.837Z,34.54
2022-08-18T09:52:24.133Z,34.13
2022-08-18T09:53:55.167Z,32.06
2022-08-18T09:54:59.587Z,33.74
2022-08-18T09:56:05.314Z,33.69
2022-08-18T09:57:19.204Z,32.79
2022-08-18T09:58:26.588Z,32.75
2022-08-18T09:59:35.763Z,31.41
2022-08-18T10:00:38.661Z,32.08
2022-08-18T10:01:42.609Z,32.01
2022-08-18T10:02:48.821Z,32.91
2022-08-18T10:04:28.910Z,33.75
2022-08-18T10:05:36.218Z,33.02
2022-08-18T10:06:48.334Z,31.77
2022-08-18T10:08:05.814Z,30.71
2022-08-18T10:11:00.785Z,29.24
2022-08-18T10:12:09.037Z,30.93
2022-08-18T10:13:49.495Z,31.22
2022-08-18T10:14:55.804Z,31.07
2022-08-18T10:16:22.898Z,31.36
2022-08-18T10:17:51.189Z,31.21
2022-08-18T10:19:14.524Z,31.27
2022-08-18T10:20:33.979Z,31.20
2022-08-18T10:22:01.845Z,31.99
2022-08-18T10:23:07.734Z,30.45
2022-08-18T10:25:48.388Z,29.17
2022-08-18T10:26:55.175Z,30.01
2022-08-18T10:27:58.441Z,30.11
2022-08-18T10:29:32.582Z,30.15
2022-08-18T10:30:57.047Z,28.89
2022-08-18T10:31:59.974Z,28.90
2022-08-18T10:33:17.890Z,30.08
2022-08-18T10:34:53.137Z,29.04
2022-08-18T10:36:03.173Z,29.67
2022-08-18T10:37:37.929Z,30.05
2022-08-18T10:38:49.784Z,29.93
2022-08-18T10:39:59.484Z,30.22
2022-08-18T10:41:24.940Z,29.94
2022-08-18T10:42:53.513Z,30.94
2022-08-18T10:43:59.133Z,31.41
2022-08-18T10:45:24.734Z,31.24
2022-08-18T10:46:46.602Z,29.49
2022-08-18T10:48:05.522Z,29.30
2022-08-18T10:49:26.153Z,28.97
2022-08-18T10:50:34.275Z,28.19
2022-08-18T10:52:14.231Z,28.48
2022-08-18T10:53:39.221Z,28.19
2022-08-18T10:54:54.332Z,28.40
2022-08-18T10:56:05.261Z,28.88
2022-08-18T10:57:18.216Z,29.59
2022-08-18T10:58:35.358Z,29.16
2022-08-18T11:00:09.689Z,28.69
2022-08-18T11:01:30.942Z,28.37
2022-08-18T11:03:42.752Z,27.70
2022-08-18T11:04:34.061Z,28.40
2022-08-18T11:05:39.522Z,29.54
2022-08-18T11:06:47.941Z,28.63
2022-08-18T11:08:02.715Z,28.67
2022-08-18T11:09:31.149Z,29.20
2022-08-18T11:12:14.382Z,28.51
2022-08-18T11:13:24.566Z,28.09
2022-08-18T11:14:51.349Z,28.02
2022-08-18T11:16:02.474Z,27.55
2022-08-18T11:17:22.912Z,27.56
2022-08-18T11:20:01.295Z,29.35
2022-08-18T11:21:41.743Z,29.69
2022-08-18T11:22:56.521Z,28.95
2022-08-18T11:24:22.285Z,29.68
2022-08-18T11:25:29.068Z,29.03
2022-08-18T11:26:35.312Z,28.67
2022-08-18T11:27:47.153Z,29.15
2022-08-18T11:28:51.806Z,29.40
2022-08-18T11:29:59.040Z,28.27
2022-08-18T11:31:02.440Z,27.93
2022-08-18T11:32:22.715Z,28.11
2022-08-18T11:33:26.076Z,27.79
2022-08-18T11:34:58.379Z,27.77
2022-08-18T11:36:01.740Z,28.07
2022-08-18T11:37:48.843Z,27.47
2022-08-18T11:38:57.934Z,28.23
2022-08-18T11:40:06.266Z,28.09
2022-08-18T11:41:20.698Z,27.83
2022-08-18T11:42:31.791Z,27.28
2022-08-18T11:45:24.606Z,27.37
2022-08-18T11:46:31.835Z,27.19
2022-08-18T11:47:41.733Z,27.65
2022-08-18T11:48:51.885Z,27.14
2022-08-18T11:50:07.407Z,28.22
2022-08-18T11:51:23.804Z,28.01
2022-08-18T11:54:00.601Z,28.71
2022-08-18T11:56:35.969Z,28.21
2022-08-18T11:57:59.696Z,26.98
2022-08-18T11:59:52.810Z,26.27
2022-08-18T12:00:53.795Z,26.43
2022-08-18T12:01:56.905Z,25.72
2022-08-18T12:03:09.045Z,26.02
2022-08-18T12:04:42.007Z,25.23
2022-08-18T12:05:57.738Z,25.68
2022-08-18T12:07:08.792Z,25.70
2022-08-18T12:12:02.718Z,24.24
2022-08-18T12:13:07.987Z,24.37
2022-08-18T12:14:31.724Z,25.09
2022-08-18T12:15:44.837Z,24.84
2022-08-18T12:16:50.931Z,25.01
2022-08-18T12:18:00.715Z,25.21
2022-08-18T12:19:06.402Z,25.49
2022-08-18T12:20:16.365Z,25.12
2022-08-18T12:21:19.319Z,25.16
2022-08-18T12:22:28.834Z,25.43
2022-08-18T12:24:58.931Z,25.97
2022-08-18T12:26:01.881Z,25.82
2022-08-18T12:27:20.438Z,26.14
2022-08-18T12:28:29.541Z,26.07
2022-08-18T12:29:36.700Z,24.76
2022-08-18T12:30:46.757Z,25.30
2022-08-18T12:31:52.308Z,25.04
2022-08-18T12:33:07.807Z,25.45
2022-08-18T12:34:24.704Z,24.52
2022-08-18T12:35:29.453Z,25.69
2022-08-18T12:36:32.611Z,24.14
2022-08-18T12:37:58.494Z,22.52
2022-08-18T12:38:58.762Z,22.99
2022-08-18T12:40:02.399Z,22.64
2022-08-18T12:41:06.055Z,23.42
2022-08-18T12:42:12.747Z,23.82
2022-08-18T12:43:15.847Z,23.69
2022-08-18T12:44:19.331Z,23.30
2022-08-18T12:45:24.734Z,23.73
2022-08-18T12:46:27.983Z,24.23
2022-08-18T12:47:32.093Z,24.88
2022-08-18T12:48:40.766Z,24.57
2022-08-18T12:49:45.813Z,24.73
2022-08-18T12:50:58.285Z,25.21
2022-08-18T12:52:03.526Z,24.97
2022-08-18T12:53:07.239Z,25.19
2022-08-18T12:54:10.709Z,25.40
2022-08-18T12:55:21.930Z,24.50
2022-08-18T12:56:31.886Z,24.69
2022-08-18T12:57:53.298Z,23.04
2022-08-18T12:58:59.219Z,23.06
2022-08-18T13:00:03.274Z,22.96
2022-08-18T13:01:07.697Z,23.80
2022-08-18T13:02:11.858Z,23.33
2022-08-18T13:03:15.091Z,23.64
2022-08-18T13:04:22.644Z,24.30
2022-08-18T13:05:30.345Z,24.47
2022-08-18T13:06:38.158Z,24.36
2022-08-18T13:07:44.540Z,23.94
2022-08-18T13:08:50.208Z,24.77
2022-08-18T13:09:54.600Z,25.14
2022-08-18T13:11:13.267Z,25.20
2022-08-18T13:12:26.189Z,25.04
2022-08-18T13:13:31.236Z,25.79
2022-08-18T13:14:34.811Z,25.41
2022-08-18T13:15:44.525Z,25.36
2022-08-18T13:17:01.812Z,25.69
2022-08-18T13:18:05.223Z,24.90
2022-08-18T13:19:10.690Z,25.21
2022-08-18T13:20:16.280Z,25.50
2022-08-18T13:21:19.465Z,24.72
2022-08-18T13:22:22.486Z,25.08
2022-08-18T13:23:35.558Z,24.95
2022-08-18T13:24:38.773Z,24.99
2022-08-18T13:25:42.185Z,24.65
2022-08-18T13:26:50.118Z,24.70
2022-08-18T13:27:58.193Z,24.77
2022-08-18T13:29:02.389Z,24.34
2022-08-18T13:30:29.959Z,25.18
2022-08-18T13:31:35.076Z,26.08
2022-08-18T13:32:47.295Z,26.89
2022-08-18T13:34:04.066Z,26.33
2022-08-18T13:35:13.344Z,26.66
2022-08-18T13:36:17.353Z,26.11
2022-08-18T13:37:21.035Z,25.78
2022-08-18T13:38:28.136Z,25.54
2022-08-18T13:39:33.824Z,26.01
2022-08-18T13:40:38.424Z,25.35
2022-08-18T13:41:52.815Z,26.71
2022-08-18T13:42:55.757Z,26.02
2022-08-18T13:44:03.680Z,25.99
2022-08-18T13:45:24.529Z,25.81
2022-08-18T13:46:30.920Z,25.94
2022-08-18T13:47:38.279Z,25.84
2022-08-18T13:48:41.980Z,25.41
2022-08-18T13:49:52.600Z,25.57
2022-08-18T13:51:04.071Z,25.50
2022-08-18T13:52:12.173Z,26.01
2022-08-18T13:53:37.547Z,25.45
2022-08-18T13:54:54.163Z,25.28
2022-08-18T13:56:00.272Z,24.97
2022-08-18T13:57:05.381Z,24.92
2022-08-18T13:58:20.211Z,24.79
2022-08-18T13:59:24.747Z,24.83
2022-08-18T14:00:31.246Z,24.62
2022-08-18T14:01:51.427Z,24.80
2022-08-18T14:02:57.447Z,23.94
2022-08-18T14:04:01.892Z,25.24
2022-08-18T14:05:05.788Z,24.84
2022-08-18T14:06:09.672Z,24.66
2022-08-18T14:07:19.154Z,23.65
2022-08-18T14:08:31.653Z,24.43
2022-08-18T14:09:37.271Z,23.81
2022-08-18T14:10:41.152Z,23.48
2022-08-18T14:11:51.397Z,24.22
2022-08-18T14:12:56.969Z,24.41
2022-08-18T14:14:00.560Z,24.16
2022-08-18T14:15:09.853Z,23.92
2022-08-18T14:16:18.647Z,24.23
2022-08-18T14:17:25.002Z,24.10
2022-08-18T14:18:30.635Z,24.13
2022-08-18T14:19:52.546Z,24.69
2022-08-18T14:21:15.091Z,24.49
2022-08-18T14:22:36.758Z,23.99
2022-08-18T14:23:58.447Z,24.63
2022-08-18T14:25:22.183Z,24.27
2022-08-18T14:26:44.614Z,24.22
2022-08-18T14:27:56.299Z,23.68
2022-08-18T14:29:00.108Z,23.98
2022-08-18T14:30:12.077Z,24.15
2022-08-18T14:31:22.908Z,23.30
2022-08-18T14:32:29.162Z,23.05
2022-08-18T14:33:49.835Z,23.96
2022-08-18T14:34:59.822Z,23.47
2022-08-18T14:36:09.769Z,23.60
2022-08-18T14:37:13.038Z,22.99
2022-08-18T14:38:16.620Z,23.77
2022-08-18T14:39:20.125Z,23.39
2022-08-18T14:40:23.183Z,23.20
2022-08-18T14:41:27.420Z,22.74
2022-08-18T14:42:41.901Z,22.67
2022-08-18T14:44:12.445Z,22.08
2022-08-18T14:45:31.418Z,22.19
2022-08-18T14:46:38.021Z,22.80
2022-08-18T14:47:43.976Z,22.76
2022-08-18T14:48:47.667Z,23.29
2022-08-18T14:49:50.563Z,23.32
2022-08-18T14:50:56.562Z,23.67
2022-08-18T14:52:01.555Z,23.51
2022-08-18T14:53:05.291Z,23.46
2022-08-18T14:54:12.703Z,24.07
2022-08-18T14:55:21.349Z,23.54
2022-08-18T14:56:28.736Z,24.49
2022-08-18T14:57:32.499Z,23.49
2022-08-18T14:58:38.423Z,23.77
2022-08-18T14:59:42.385Z,24.14
2022-08-18T15:00:53.235Z,23.72
2022-08-18T15:01:58.630Z,24.68
2022-08-18T15:03:01.609Z,24.36
2022-08-18T15:04:18.569Z,24.15
2022-08-18T15:05:24.658Z,24.89
2022-08-18T15:06:28.023Z,24.38
2022-08-18T15:07:32.748Z,23.33
2022-08-18T15:08:37.603Z,23.79
2022-08-18T15:09:41.421Z,23.86
2022-08-18T15:10:47.809Z,24.05
2022-08-18T15:11:54.341Z,23.90
2022-08-18T15:13:03.495Z,23.95
2022-08-18T15:14:06.659Z,24.47
2022-08-18T15:15:15.980Z,24.15
2022-08-18T15:16:32.322Z,24.09
2022-08-18T15:17:39.036Z,24.59
2022-08-18T15:18:46.599Z,24.21
2022-08-18T15:19:59.902Z,24.10
2022-08-18T15:21:35.631Z,23.90
2022-08-18T15:23:04.036Z,24.91
2022-08-18T15:24:26.618Z,24.66
2022-08-18T15:25:44.872Z,24.66
2022-08-18T15:26:51.569Z,25.04
2022-08-18T15:27:55.030Z,24.45
2022-08-18T15:29:00.233Z,24.72
2022-08-18T15:30:11.691Z,24.93
2022-08-18T15:31:48.931Z,24.83
2022-08-18T15:32:41.714Z,24.85
2022-08-18T15:33:50.254Z,24.99
2022-08-18T15:34:54.143Z,25.27
2022-08-18T15:35:57.080Z,24.87
2022-08-18T15:37:09.778Z,25.14
2022-08-18T15:38:13.309Z,24.30
2022-08-18T15:39:16.920Z,24.14
2022-08-18T15:40:30.900Z,24.65
2022-08-18T15:43:01.648Z,24.34
2022-08-18T15:44:07.133Z,24.80
2022-08-18T15:45:16.056Z,24.56
2022-08-18T15:46:19.064Z,24.62